createdAt,value
2019-04-28T00:00:52.959Z,13.60
2019-04-28T00:03:23.079Z,13.40
2019-04-28T00:05:53.546Z,13.45
2019-04-28T00:08:24.589Z,13.36
2019-04-28T00:10:54.196Z,13.43
2019-04-28T00:13:23.861Z,13.50
2019-04-28T00:15:54.055Z,13.48
2019-04-28T00:18:23.954Z,13.33
2019-04-28T00:20:57.711Z,13.35
2019-04-28T00:23:42.268Z,13.34
2019-04-28T00:26:22.109Z,13.39
2019-04-28T00:28:51.659Z,13.24
2019-04-28T00:31:22.042Z,13.44
2019-04-28T00:33:52.445Z,13.40
2019-04-28T00:36:21.749Z,13.72
2019-04-28T00:38:51.558Z,13.59
2019-04-28T00:41:22.424Z,13.55
2019-04-28T00:43:54.489Z,13.42
2019-04-28T00:46:26.352Z,13.61
2019-04-28T00:48:58.158Z,13.65
2019-04-28T00:51:27.591Z,13.65
2019-04-28T00:53:57.993Z,13.82
2019-04-28T00:56:28.297Z,13.93
2019-04-28T00:58:59.232Z,13.96
2019-04-28T01:01:31.296Z,13.56
2019-04-28T01:04:02.179Z,13.57
2019-04-28T01:06:32.134Z,14.16
2019-04-28T01:09:04.206Z,13.83
2019-04-28T01:11:33.552Z,13.96
2019-04-28T01:14:03.951Z,13.87
2019-04-28T01:16:34.857Z,13.79
2019-04-28T01:19:11.574Z,13.58
2019-04-28T01:22:00.354Z,13.50
2019-04-28T01:24:30.025Z,13.34
2019-04-28T01:27:00.536Z,13.31
2019-04-28T01:29:34.165Z,13.47
2019-04-28T01:32:20.134Z,13.78
2019-04-28T01:34:50.652Z,14.08
2019-04-28T01:37:20.945Z,14.45
2019-04-28T01:39:51.541Z,14.62
2019-04-28T01:42:23.435Z,14.17
2019-04-28T01:44:52.941Z,14.31
2019-04-28T01:47:23.298Z,14.30
2019-04-28T01:49:52.809Z,14.57
2019-04-28T01:52:26.301Z,14.55
2019-04-28T01:55:00.604Z,14.23
2019-04-28T01:57:30.983Z,14.21
2019-04-28T02:00:02.744Z,14.25
2019-04-28T02:02:33.464Z,14.42
2019-04-28T02:05:03.866Z,14.29
2019-04-28T02:07:34.376Z,14.44
2019-04-28T02:10:06.348Z,14.80
2019-04-28T02:12:38.007Z,14.61
2019-04-28T02:15:11.694Z,14.56
2019-04-28T02:17:41.173Z,14.40
2019-04-28T02:20:10.520Z,14.37
2019-04-28T02:22:44.272Z,14.11
2019-04-28T02:25:13.696Z,14.31
2019-04-28T02:27:46.288Z,14.18
2019-04-28T02:30:17.022Z,13.62
2019-04-28T02:32:47.677Z,13.95
2019-04-28T02:35:18.036Z,14.33
2019-04-28T02:37:50.688Z,14.08
2019-04-28T02:40:21.139Z,14.01
2019-04-28T02:42:52.273Z,14.18
2019-04-28T02:45:22.414Z,14.11
2019-04-28T02:47:52.849Z,14.22
2019-04-28T02:50:30.479Z,14.49
2019-04-28T02:53:03.031Z,14.36
2019-04-28T02:55:36.314Z,14.53
2019-04-28T02:58:06.824Z,14.54
2019-04-28T03:00:37.335Z,14.25
2019-04-28T03:03:10.857Z,14.21
2019-04-28T03:05:41.399Z,14.42
2019-04-28T03:08:13.518Z,14.64
2019-04-28T03:10:43.975Z,14.71
2019-04-28T03:13:13.483Z,14.45
2019-04-28T03:15:44.622Z,14.57
2019-04-28T03:18:16.403Z,14.34
2019-04-28T03:20:46.845Z,14.51
2019-04-28T03:23:20.642Z,14.42
2019-04-28T03:25:53.004Z,14.39
2019-04-28T03:28:26.899Z,14.07
2019-04-28T03:31:03.333Z,14.55
2019-04-28T03:33:34.100Z,14.25
2019-04-28T03:36:08.551Z,14.19
2019-04-28T03:38:34.882Z,14.07
2019-04-28T03:41:05.249Z,14.10
2019-04-28T03:43:35.639Z,13.85
2019-04-28T03:46:20.419Z,13.99
2019-04-28T03:48:51.127Z,13.87
2019-04-28T03:51:21.285Z,13.34
2019-04-28T03:53:52.108Z,13.72
2019-04-28T03:56:21.516Z,13.58
2019-04-28T03:58:50.875Z,13.71
2019-04-28T04:01:21.220Z,13.34
2019-04-28T04:03:51.902Z,13.29
2019-04-28T04:06:22.831Z,13.14
2019-04-28T04:08:52.239Z,12.94
2019-04-28T04:11:26.079Z,12.99
2019-04-28T04:13:58.157Z,12.95
2019-04-28T04:16:33.370Z,12.78
2019-04-28T04:19:10.600Z,13.14
2019-04-28T04:21:40.808Z,13.45
2019-04-28T04:24:11.590Z,13.59
2019-04-28T04:26:41.289Z,13.64
2019-04-28T04:29:11.014Z,13.74
2019-04-28T04:31:41.335Z,13.70
2019-04-28T04:34:12.997Z,13.56
2019-04-28T04:36:43.400Z,13.89
2019-04-28T04:39:14.015Z,13.81
2019-04-28T04:41:43.791Z,13.83
2019-04-28T04:44:12.519Z,13.81
2019-04-28T04:46:44.187Z,13.83
2019-04-28T04:49:13.596Z,13.67
2019-04-28T04:51:44.181Z,13.88
2019-04-28T04:54:13.464Z,15.30
2019-04-28T04:56:46.121Z,18.11
2019-04-28T04:59:16.840Z,20.55
2019-04-28T05:02:00.005Z,21.24
2019-04-28T05:04:46.689Z,23.13
2019-04-28T05:07:19.673Z,22.33
2019-04-28T05:09:49.617Z,21.56
2019-04-28T05:12:19.603Z,21.71
2019-04-28T05:14:50.315Z,19.38
2019-04-28T05:17:20.716Z,18.05
2019-04-28T05:19:50.069Z,17.96
2019-04-28T05:22:22.354Z,18.74
2019-04-28T05:24:54.628Z,17.75
2019-04-28T05:27:25.604Z,16.45
2019-04-28T05:29:56.738Z,20.66
2019-04-28T05:32:39.305Z,24.55
2019-04-28T05:35:00.183Z,26.05
2019-04-28T05:37:35.747Z,27.16
2019-04-28T05:40:10.443Z,26.78
2019-04-28T05:42:42.735Z,27.72
2019-04-28T05:45:13.247Z,28.91
2019-04-28T05:47:43.640Z,31.04
2019-04-28T05:50:19.570Z,30.44
2019-04-28T05:53:00.675Z,31.99
2019-04-28T05:55:33.035Z,33.28
2019-04-28T05:58:05.002Z,34.73
2019-04-28T06:00:49.883Z,36.27
2019-04-28T06:03:24.101Z,35.74
2019-04-28T06:05:53.608Z,37.69
2019-04-28T06:08:27.464Z,37.29
2019-04-28T06:10:59.894Z,35.79
2019-04-28T06:13:30.301Z,35.95
2019-04-28T06:16:00.465Z,37.98
2019-04-28T06:18:31.326Z,36.66
2019-04-28T06:21:00.743Z,37.63
2019-04-28T06:23:30.062Z,37.43
2019-04-28T06:25:59.456Z,37.60
2019-04-28T06:28:30.143Z,39.99
2019-04-28T06:31:00.659Z,41.01
2019-04-28T06:33:32.265Z,38.85
2019-04-28T06:36:04.584Z,35.66
2019-04-28T06:38:34.059Z,34.89
2019-04-28T06:41:04.454Z,34.69
2019-04-28T06:43:34.964Z,30.73
2019-04-28T06:46:05.578Z,27.56
2019-04-28T06:48:35.910Z,27.00
2019-04-28T06:51:05.507Z,24.42
2019-04-28T06:53:35.857Z,23.91
2019-04-28T06:56:05.363Z,24.94
2019-04-28T06:58:34.834Z,22.86
2019-04-28T07:01:04.274Z,22.07
2019-04-28T07:03:36.643Z,20.86
2019-04-28T07:06:07.266Z,20.44
2019-04-28T07:08:37.770Z,20.99
2019-04-28T07:11:08.398Z,20.85
2019-04-28T07:13:37.786Z,20.75
2019-04-28T07:16:08.510Z,19.83
2019-04-28T07:18:38.970Z,19.47
2019-04-28T07:21:10.842Z,21.12
2019-04-28T07:23:41.391Z,19.61
2019-04-28T07:26:12.911Z,19.16
2019-04-28T07:28:43.530Z,19.24
2019-04-28T07:31:13.285Z,19.04
2019-04-28T07:33:42.721Z,18.91
2019-04-28T07:36:13.099Z,18.66
2019-04-28T07:38:43.477Z,18.19
2019-04-28T07:41:13.958Z,17.69
2019-04-28T07:43:47.726Z,17.73
2019-04-28T07:46:20.123Z,17.90
2019-04-28T07:48:52.500Z,17.90
2019-04-28T07:51:24.686Z,18.13
2019-04-28T07:54:01.638Z,17.87
2019-04-28T07:56:30.244Z,18.26
2019-04-28T07:59:00.931Z,18.18
2019-04-28T08:01:31.539Z,18.16
2019-04-28T08:04:03.504Z,18.01
2019-04-28T08:06:33.911Z,18.41
2019-04-28T08:09:03.272Z,18.42
2019-04-28T08:11:33.572Z,18.82
2019-04-28T08:14:04.500Z,19.20
2019-04-28T08:16:38.041Z,19.12
2019-04-28T08:19:10.536Z,18.82
2019-04-28T08:21:42.059Z,19.05
2019-04-28T08:24:14.479Z,18.96
2019-04-28T08:26:44.991Z,21.72
2019-04-28T08:29:15.414Z,22.57
2019-04-28T08:31:59.692Z,23.79
2019-04-28T08:34:38.881Z,24.39
2019-04-28T08:37:09.485Z,30.21
2019-04-28T08:39:39.889Z,31.76
2019-04-28T08:42:09.302Z,27.69
2019-04-28T08:44:42.689Z,23.48
2019-04-28T08:47:12.067Z,22.20
2019-04-28T08:49:41.512Z,21.10
2019-04-28T08:52:11.918Z,20.60
2019-04-28T08:54:41.325Z,20.10
2019-04-28T08:57:12.038Z,20.57
2019-04-28T08:59:41.407Z,21.36
2019-04-28T09:02:11.056Z,33.52
2019-04-28T09:04:41.564Z,36.53
2019-04-28T09:07:12.158Z,39.67
2019-04-28T09:09:42.356Z,44.12
2019-04-28T09:12:12.864Z,44.88
2019-04-28T09:14:43.376Z,43.46
2019-04-28T09:17:13.621Z,43.72
2019-04-28T09:19:46.071Z,43.13
2019-04-28T09:22:16.471Z,38.72
2019-04-28T09:24:46.876Z,38.29
2019-04-28T09:27:16.341Z,38.58
2019-04-28T09:29:45.746Z,30.39
2019-04-28T09:32:15.113Z,26.55
2019-04-28T09:34:45.474Z,24.19
2019-04-28T09:37:14.837Z,22.95
2019-04-28T09:39:47.024Z,21.85
2019-04-28T09:42:34.235Z,22.45
2019-04-28T09:45:07.563Z,22.41
2019-04-28T09:47:38.196Z,30.64
2019-04-28T09:50:09.017Z,34.00
2019-04-28T09:52:38.411Z,33.43
2019-04-28T09:55:08.883Z,28.33
2019-04-28T09:57:39.443Z,24.07
2019-04-28T10:00:11.628Z,24.07
2019-04-28T10:02:42.282Z,23.83
2019-04-28T10:05:15.090Z,23.60
2019-04-28T10:07:45.497Z,24.06
2019-04-28T10:10:16.217Z,24.60
2019-04-28T10:12:46.620Z,24.59
2019-04-28T10:15:16.305Z,25.05
2019-04-28T10:17:46.722Z,24.78
2019-04-28T10:20:18.068Z,24.20
2019-04-28T10:22:50.648Z,24.31
2019-04-28T10:25:21.256Z,24.03
2019-04-28T10:27:51.663Z,23.67
2019-04-28T10:30:21.493Z,23.64
2019-04-28T10:32:54.043Z,23.39
2019-04-28T10:35:23.348Z,23.52
2019-04-28T10:37:52.888Z,22.02
2019-04-28T10:40:42.600Z,22.63
2019-04-28T10:43:11.437Z,21.86
2019-04-28T10:45:49.059Z,22.48
2019-04-28T10:48:19.676Z,22.27
2019-04-28T10:50:49.077Z,21.55
2019-04-28T10:53:21.625Z,21.64
2019-04-28T10:55:51.090Z,22.42
2019-04-28T10:58:20.614Z,22.05
2019-04-28T11:00:50.970Z,22.42
2019-04-28T11:03:21.365Z,21.72
2019-04-28T11:05:51.772Z,21.91
2019-04-28T11:08:37.858Z,21.11
2019-04-28T11:11:10.001Z,21.75
2019-04-28T11:13:39.326Z,22.52
2019-04-28T11:16:09.176Z,22.28
2019-04-28T11:18:45.527Z,22.71
2019-04-28T11:21:17.806Z,22.93
2019-04-28T11:23:50.883Z,22.36
2019-04-28T11:26:21.199Z,22.45
2019-04-28T11:28:51.532Z,22.00
2019-04-28T11:31:21.064Z,21.40
2019-04-28T11:34:11.353Z,21.53
2019-04-28T11:36:43.850Z,21.17
2019-04-28T11:39:15.935Z,21.73
2019-04-28T11:41:46.346Z,22.27
2019-04-28T11:44:17.166Z,23.61
2019-04-28T11:46:47.795Z,24.39
2019-04-28T11:49:18.174Z,24.78
2019-04-28T11:51:48.685Z,24.38
2019-04-28T11:54:20.028Z,25.25
2019-04-28T11:56:52.338Z,22.69
2019-04-28T11:59:22.838Z,22.79
2019-04-28T12:01:53.440Z,22.71
2019-04-28T12:04:23.949Z,22.52
2019-04-28T12:06:54.565Z,22.17
2019-04-28T12:09:30.238Z,21.29
2019-04-28T12:12:02.269Z,21.54
2019-04-28T12:14:37.168Z,21.62
2019-04-28T12:17:21.254Z,21.82
2019-04-28T12:19:54.809Z,22.38
2019-04-28T12:22:25.197Z,22.65
2019-04-28T12:24:56.981Z,22.80
2019-04-28T12:27:29.250Z,22.93
2019-04-28T12:29:59.698Z,22.64
2019-04-28T12:32:30.169Z,22.33
2019-04-28T12:35:00.778Z,22.24
2019-04-28T12:37:32.762Z,21.85
2019-04-28T12:40:01.589Z,21.85
2019-04-28T12:42:32.106Z,21.90
2019-04-28T12:45:01.479Z,22.27
2019-04-28T12:47:31.970Z,22.06
2019-04-28T12:50:06.762Z,22.61
2019-04-28T12:52:36.291Z,22.30
2019-04-28T12:55:07.981Z,22.69
2019-04-28T12:57:38.397Z,22.79
2019-04-28T13:00:26.873Z,22.84
2019-04-28T13:03:08.881Z,22.52
2019-04-28T13:05:41.053Z,22.46
2019-04-28T13:08:11.369Z,23.11
2019-04-28T13:10:40.713Z,22.70
2019-04-28T13:13:11.132Z,22.17
2019-04-28T13:15:42.801Z,22.77
2019-04-28T13:18:13.394Z,22.86
2019-04-28T13:20:43.807Z,23.28
2019-04-28T13:23:13.205Z,23.36
2019-04-28T13:25:43.566Z,23.52
2019-04-28T13:28:12.985Z,23.52
2019-04-28T13:30:44.271Z,23.35
2019-04-28T13:33:14.886Z,23.10
2019-04-28T13:35:45.291Z,23.02
2019-04-28T13:38:14.781Z,22.83
2019-04-28T13:40:45.598Z,22.66
2019-04-28T13:43:15.987Z,22.07
2019-04-28T13:45:47.435Z,22.10
2019-04-28T13:48:17.063Z,22.30
2019-04-28T13:50:49.087Z,21.94
2019-04-28T13:53:18.709Z,22.17
2019-04-28T13:55:49.869Z,21.39
2019-04-28T13:58:23.344Z,20.18
2019-04-28T14:00:55.405Z,19.63
2019-04-28T14:03:37.612Z,18.68
2019-04-28T14:06:11.406Z,18.44
2019-04-28T14:08:40.765Z,18.69
2019-04-28T14:11:11.153Z,18.61
2019-04-28T14:13:41.654Z,19.41
2019-04-28T14:16:11.844Z,19.43
2019-04-28T14:18:42.240Z,19.71
2019-04-28T14:21:11.617Z,19.84
2019-04-28T14:23:44.822Z,19.90
2019-04-28T14:26:15.545Z,19.72
2019-04-28T14:28:45.063Z,19.81
2019-04-28T14:31:15.425Z,19.73
2019-04-28T14:33:46.260Z,19.69
2019-04-28T14:36:15.663Z,19.89
2019-04-28T14:38:44.980Z,20.29
2019-04-28T14:41:15.474Z,20.53
2019-04-28T14:43:45.787Z,20.50
2019-04-28T14:46:17.957Z,20.81
2019-04-28T14:48:47.320Z,20.72
2019-04-28T14:51:17.817Z,20.82
2019-04-28T14:53:49.333Z,20.81
2019-04-28T14:56:17.871Z,20.91
2019-04-28T14:58:47.322Z,21.46
2019-04-28T15:01:37.190Z,21.41
2019-04-28T15:04:09.874Z,21.30
2019-04-28T15:06:54.841Z,21.81
2019-04-28T15:09:19.910Z,21.74
2019-04-28T15:11:56.911Z,21.95
2019-04-28T15:14:26.323Z,21.70
2019-04-28T15:16:54.897Z,21.55
2019-04-28T15:19:24.423Z,21.51
2019-04-28T15:21:54.632Z,21.24
2019-04-28T15:24:25.389Z,21.17
2019-04-28T15:26:54.792Z,21.04
2019-04-28T15:29:24.135Z,21.13
2019-04-28T15:31:56.588Z,21.09
2019-04-28T15:34:25.997Z,21.04
2019-04-28T15:37:09.182Z,20.85
2019-04-28T15:39:27.805Z,21.05
2019-04-28T15:41:58.210Z,20.88
2019-04-28T15:44:28.628Z,20.72
2019-04-28T15:46:58.031Z,20.69
2019-04-28T15:49:28.383Z,20.98
2019-04-28T15:51:58.789Z,20.97
2019-04-28T15:54:28.210Z,20.93
2019-04-28T15:59:32.412Z,20.06
2019-04-28T16:02:02.918Z,20.01
2019-04-28T16:04:34.686Z,19.94
2019-04-28T16:07:05.294Z,19.82
2019-04-28T16:09:34.665Z,19.93
2019-04-28T16:12:05.490Z,19.91
2019-04-28T16:14:34.785Z,19.70
2019-04-28T16:17:05.360Z,19.88
2019-04-28T16:19:35.859Z,20.09
2019-04-28T16:22:06.369Z,19.78
2019-04-28T16:24:38.575Z,19.64
2019-04-28T16:27:10.320Z,19.62
2019-04-28T16:29:40.627Z,19.06
2019-04-28T16:32:10.029Z,19.12
2019-04-28T16:34:40.396Z,18.95
2019-04-28T16:37:09.903Z,18.84
2019-04-28T16:39:40.253Z,19.10
2019-04-28T16:42:09.091Z,19.00
2019-04-28T16:44:38.466Z,18.83
2019-04-28T16:47:08.869Z,18.99
2019-04-28T16:49:38.169Z,19.05
2019-04-28T16:52:07.710Z,18.82
2019-04-28T16:54:38.257Z,19.12
2019-04-28T16:57:23.406Z,19.17
2019-04-28T16:59:56.973Z,19.21
2019-04-28T17:02:31.883Z,19.25
2019-04-28T17:05:02.387Z,19.25
2019-04-28T17:07:31.783Z,19.14
2019-04-28T17:10:02.266Z,18.94
2019-04-28T17:12:31.659Z,19.14
2019-04-28T17:15:02.022Z,19.01
2019-04-28T17:17:32.425Z,18.81
2019-04-28T17:20:05.444Z,18.71
2019-04-28T17:22:35.848Z,18.44
2019-04-28T17:25:08.533Z,18.39
2019-04-28T17:27:38.952Z,18.36
2019-04-28T17:30:09.616Z,18.02
2019-04-28T17:32:39.043Z,18.10
2019-04-28T17:35:08.502Z,18.11
2019-04-28T17:37:39.034Z,18.01
2019-04-28T17:40:09.732Z,17.91
2019-04-28T17:42:40.341Z,17.82
2019-04-28T17:45:11.380Z,17.75
2019-04-28T17:47:41.783Z,17.71
2019-04-28T17:50:13.563Z,17.60
2019-04-28T17:52:44.053Z,17.55
2019-04-28T17:55:14.467Z,17.49
2019-04-28T17:57:45.712Z,17.44
2019-04-28T18:00:16.375Z,17.36
2019-04-28T18:02:51.222Z,17.33
2019-04-28T18:05:38.120Z,17.28
2019-04-28T18:08:20.405Z,17.18
2019-04-28T18:10:40.373Z,17.13
2019-04-28T18:13:10.801Z,17.06
2019-04-28T18:15:44.881Z,17.04
2019-04-28T18:18:24.633Z,16.87
2019-04-28T18:20:55.071Z,16.91
2019-04-28T18:23:24.537Z,16.82
2019-04-28T18:25:54.951Z,16.59
2019-04-28T18:28:25.577Z,16.42
2019-04-28T18:31:12.933Z,16.42
2019-04-28T18:33:46.527Z,16.31
2019-04-28T18:36:26.448Z,16.22
2019-04-28T18:38:59.696Z,16.18
2019-04-28T18:41:45.961Z,16.17
2019-04-28T18:44:20.426Z,16.13
2019-04-28T18:46:49.833Z,16.07
2019-04-28T18:49:20.293Z,15.97
2019-04-28T18:51:50.700Z,15.98
2019-04-28T18:54:21.222Z,15.85
2019-04-28T18:56:51.616Z,15.76
2019-04-28T18:59:24.288Z,15.70
2019-04-28T19:01:58.501Z,15.62
2019-04-28T19:04:28.893Z,15.65
2019-04-28T19:07:04.942Z,15.48
2019-04-28T19:09:47.353Z,15.49
2019-04-28T19:12:21.878Z,15.56
2019-04-28T19:14:56.953Z,15.51
2019-04-28T19:17:34.861Z,15.51
2019-04-28T19:20:04.687Z,15.42
2019-04-28T19:22:37.068Z,15.49
2019-04-28T19:25:07.699Z,15.27
2019-04-28T19:27:38.051Z,15.19
2019-04-28T19:30:07.527Z,15.16
2019-04-28T19:32:38.036Z,15.20
2019-04-28T19:35:08.643Z,15.27
2019-04-28T19:37:39.046Z,15.19
2019-04-28T19:40:12.063Z,15.14
2019-04-28T19:42:41.476Z,15.11
2019-04-28T19:45:14.130Z,15.00
2019-04-28T19:47:45.787Z,15.00
2019-04-28T19:50:15.262Z,15.03
2019-04-28T19:52:45.595Z,15.03
2019-04-28T19:55:17.839Z,14.93
2019-04-28T19:57:57.749Z,14.95
2019-04-28T20:00:28.925Z,14.88
2019-04-28T20:02:58.256Z,14.84
2019-04-28T20:05:28.862Z,14.86
2019-04-28T20:07:58.235Z,14.85
2019-04-28T20:10:30.096Z,14.73
2019-04-28T20:12:59.500Z,14.67
2019-04-28T20:15:28.868Z,14.59
2019-04-28T20:18:00.198Z,14.54
2019-04-28T20:20:32.144Z,14.60
2019-04-28T20:23:01.538Z,14.42
2019-04-28T20:25:34.821Z,14.42
2019-04-28T20:28:05.456Z,14.36
2019-04-28T20:30:35.843Z,14.34
2019-04-28T20:33:07.647Z,14.08
2019-04-28T20:35:39.995Z,14.12
2019-04-28T20:38:12.073Z,14.06
2019-04-28T20:40:44.153Z,14.00
2019-04-28T20:43:21.553Z,14.01
2019-04-28T20:45:51.143Z,13.96
2019-04-28T20:48:20.593Z,13.90
2019-04-28T20:50:51.100Z,13.97
2019-04-28T20:53:21.630Z,13.92
2019-04-28T20:55:52.128Z,13.83
2019-04-28T20:58:28.374Z,13.83
2019-04-28T21:00:59.931Z,13.75
2019-04-28T21:03:30.646Z,13.75
2019-04-28T21:06:00.021Z,13.74
2019-04-28T21:08:29.324Z,13.68
2019-04-28T21:10:59.672Z,13.64
2019-04-28T21:13:30.190Z,13.69
2019-04-28T21:16:00.806Z,13.74
2019-04-28T21:18:32.557Z,13.79
2019-04-28T21:21:04.115Z,13.80
2019-04-28T21:23:33.498Z,13.87
2019-04-28T21:26:02.951Z,13.71
2019-04-28T21:28:32.455Z,13.66
2019-04-28T21:31:02.917Z,13.65
2019-04-28T21:33:32.715Z,13.58
2019-04-28T21:36:02.065Z,13.53
2019-04-28T21:38:31.471Z,13.53
2019-04-28T21:41:00.785Z,13.55
2019-04-28T21:43:36.881Z,13.53
2019-04-28T21:46:18.796Z,13.52
2019-04-28T21:48:51.132Z,13.53
2019-04-28T21:51:19.945Z,13.51
2019-04-28T21:53:52.230Z,13.45
2019-04-28T21:56:25.978Z,13.37
2019-04-28T21:58:57.950Z,13.26
2019-04-28T22:01:30.663Z,13.19
2019-04-28T22:04:00.963Z,13.17
2019-04-28T22:06:31.360Z,13.22
2019-04-28T22:09:01.871Z,13.07
2019-04-28T22:11:32.695Z,13.04
2019-04-28T22:14:02.168Z,13.07
2019-04-28T22:16:31.558Z,13.07
2019-04-28T22:19:02.138Z,13.13
2019-04-28T22:21:32.647Z,13.13
2019-04-28T22:24:13.599Z,13.17
2019-04-28T22:26:48.502Z,13.00
2019-04-28T22:29:18.907Z,13.03
2019-04-28T22:31:52.964Z,12.92
2019-04-28T22:34:23.685Z,12.91
2019-04-28T22:36:54.301Z,12.90
2019-04-28T22:39:25.042Z,12.94
2019-04-28T22:41:55.631Z,12.96
2019-04-28T22:44:28.024Z,12.98
2019-04-28T22:46:59.783Z,13.04
2019-04-28T22:49:31.528Z,13.05
2019-04-28T22:52:03.185Z,12.97
2019-04-28T22:54:39.254Z,12.95
2019-04-28T22:57:12.901Z,12.94
2019-04-28T22:59:46.833Z,12.81
2019-04-28T23:02:19.036Z,12.65
2019-04-28T23:04:58.419Z,12.70
2019-04-28T23:07:28.826Z,12.75
2019-04-28T23:09:58.195Z,12.73
2019-04-28T23:12:28.804Z,12.78
2019-04-28T23:14:58.075Z,12.73
2019-04-28T23:17:27.579Z,12.67
2019-04-28T23:19:58.459Z,12.70
2019-04-28T23:22:45.880Z,12.64
2019-04-28T23:25:03.988Z,12.62
2019-04-28T23:27:35.527Z,12.68
2019-04-28T23:30:06.600Z,12.72
2019-04-28T23:32:35.447Z,12.74
2019-04-28T23:35:06.631Z,12.59
2019-04-28T23:37:35.128Z,12.57
2019-04-28T23:40:07.127Z,12.67
2019-04-28T23:42:39.538Z,12.54
2019-04-28T23:45:12.129Z,12.57
2019-04-28T23:47:43.242Z,12.60
2019-04-28T23:50:15.436Z,12.53
2019-04-28T23:52:52.212Z,12.52
2019-04-28T23:55:22.110Z,12.47
2019-04-28T23:57:52.605Z,12.49
